PILOTS ONLINE: 270    ATC ONLINE: 59

KOTH

Southwest Oregon Regional Airport

Location

IATA OTH
City North Bend
Country  United States
Latitude 43° 25' 1" N
Longitude 124° 14' 45" W
Elevation 17 ft
Type Medium Airport

Map

Weather

METAR
2014/10/21 01:55
KOTH 210155Z 19009G15KT 10SM BKN090 14/12 A2987 RMK AO1
TAF
2014/10/20 18:45
TAF KOTH 201740Z 2018/2118 19008KT P6SM -SHRA SCT025 BKN035 OVC060 
     FM202000 21012G22KT P6SM -SHRA SCT025 BKN035 
     FM210300 17008KT P6SM -SHRA BKN025 BKN035

Runways

04/22 5321 ft / 150 ft
13/31 4471 ft / 150 ft

Outbound flights

Callsign Flying to Pilot ATD/STD ETA Aircraft

Inbound flights

Callsign Flying from Pilot ATD ETA Aircraft